createdAt,value
2019-05-30T00:01:34.930Z,0.60
2019-05-30T00:04:04.936Z,0.70
2019-05-30T00:06:34.525Z,0.40
2019-05-30T00:09:05.473Z,1.00
2019-05-30T00:11:34.884Z,0.83
2019-05-30T00:14:04.946Z,0.80
2019-05-30T00:16:34.484Z,0.70
2019-05-30T00:19:05.057Z,0.93
2019-05-30T00:21:34.593Z,0.67
2019-05-30T00:24:04.254Z,0.40
2019-05-30T00:26:33.920Z,0.50
2019-05-30T00:29:04.441Z,0.40
2019-05-30T00:31:33.998Z,0.50
2019-05-30T00:34:04.214Z,0.50
2019-05-30T00:36:33.741Z,0.30
2019-05-30T00:39:04.134Z,0.20
2019-05-30T00:41:33.583Z,0.50
2019-05-30T00:44:04.201Z,0.30
2019-05-30T00:46:34.046Z,0.40
2019-05-30T00:49:04.538Z,0.33
2019-05-30T00:51:34.127Z,0.47
2019-05-30T00:54:04.719Z,0.60
2019-05-30T00:56:34.365Z,0.40
2019-05-30T00:59:04.804Z,0.40
2019-05-30T01:01:34.475Z,0.40
2019-05-30T01:04:04.980Z,0.53
2019-05-30T01:06:34.655Z,0.50
2019-05-30T01:09:05.253Z,0.50
2019-05-30T01:11:34.750Z,0.50
2019-05-30T01:14:05.432Z,0.40
2019-05-30T01:16:35.153Z,0.50
2019-05-30T01:19:05.285Z,0.40
2019-05-30T01:21:35.172Z,0.53
2019-05-30T01:24:05.664Z,0.40
2019-05-30T01:26:35.461Z,0.40
2019-05-30T01:29:05.570Z,0.40
2019-05-30T01:31:35.287Z,0.50
2019-05-30T01:34:05.857Z,0.50
2019-05-30T01:36:35.380Z,0.47
2019-05-30T01:39:08.019Z,0.50
2019-05-30T01:41:37.722Z,0.40
2019-05-30T01:44:08.205Z,0.47
2019-05-30T01:46:37.915Z,0.40
2019-05-30T01:49:08.652Z,0.60
2019-05-30T01:51:38.289Z,0.60
2019-05-30T01:54:08.685Z,0.70
2019-05-30T01:56:38.448Z,0.50
2019-05-30T01:59:08.799Z,0.40
2019-05-30T02:01:38.521Z,0.70
2019-05-30T02:04:09.329Z,0.40
2019-05-30T02:06:39.035Z,0.60
2019-05-30T02:09:10.413Z,1.20
2019-05-30T02:11:39.648Z,0.80
2019-05-30T02:14:09.912Z,0.83
2019-05-30T02:16:39.580Z,0.60
2019-05-30T02:19:10.580Z,0.50
2019-05-30T02:21:40.125Z,0.60
2019-05-30T02:24:12.041Z,0.40
2019-05-30T02:26:40.655Z,2.03
2019-05-30T02:29:10.449Z,0.40
2019-05-30T02:31:40.127Z,0.53
2019-05-30T02:34:12.075Z,0.50
2019-05-30T02:36:41.049Z,0.40
2019-05-30T02:39:12.010Z,0.40
2019-05-30T02:41:41.585Z,0.40
2019-05-30T02:44:12.509Z,0.43
2019-05-30T02:46:42.319Z,0.30
2019-05-30T02:49:13.722Z,0.20
2019-05-30T02:51:42.955Z,0.20
2019-05-30T02:54:13.290Z,0.60
2019-05-30T02:56:43.121Z,0.50
2019-05-30T02:59:13.638Z,0.53
2019-05-30T03:02:00.260Z,0.40
2019-05-30T03:04:14.760Z,0.50
2019-05-30T03:06:44.357Z,1.03
2019-05-30T03:09:13.869Z,0.70
2019-05-30T03:11:43.334Z,0.60
2019-05-30T03:14:19.311Z,0.37
2019-05-30T03:16:43.954Z,0.40
2019-05-30T03:19:13.393Z,0.53
2019-05-30T03:21:42.833Z,0.53
2019-05-30T03:24:14.259Z,0.30
2019-05-30T03:26:43.894Z,0.40
2019-05-30T03:29:14.378Z,0.40
2019-05-30T03:31:46.060Z,0.20
2019-05-30T03:34:26.304Z,0.60
2019-05-30T03:36:46.701Z,0.60
2019-05-30T03:39:16.122Z,0.50
2019-05-30T03:41:45.604Z,0.53
2019-05-30T03:44:15.582Z,0.40
2019-05-30T03:46:50.581Z,0.60
2019-05-30T03:49:23.853Z,0.50
2019-05-30T03:51:56.396Z,0.50
2019-05-30T03:54:26.893Z,0.40
2019-05-30T03:57:04.692Z,0.60
2019-05-30T03:59:37.388Z,0.77
2019-05-30T04:02:19.012Z,0.70
2019-05-30T04:04:52.484Z,1.17
2019-05-30T04:07:25.387Z,1.20
2019-05-30T04:09:55.876Z,0.90
2019-05-30T04:12:42.095Z,0.80
2019-05-30T04:15:18.778Z,0.80
2019-05-30T04:17:48.702Z,0.60
2019-05-30T04:20:22.567Z,0.73
2019-05-30T04:22:49.339Z,1.23
2019-05-30T04:25:18.790Z,1.50
2019-05-30T04:27:48.323Z,1.40
2019-05-30T04:30:18.660Z,1.20
2019-05-30T04:32:48.004Z,0.90
2019-05-30T04:35:18.849Z,0.70
2019-05-30T04:37:48.599Z,0.30
2019-05-30T04:40:19.591Z,0.50
2019-05-30T04:42:49.343Z,0.70
2019-05-30T04:45:20.345Z,0.73
2019-05-30T04:47:50.042Z,0.80
2019-05-30T04:50:20.695Z,0.87
2019-05-30T04:52:50.478Z,0.90
2019-05-30T04:55:21.079Z,0.77
2019-05-30T04:57:51.128Z,0.63
2019-05-30T05:00:21.581Z,0.80
2019-05-30T05:02:51.386Z,0.70
2019-05-30T05:05:26.362Z,1.10
2019-05-30T05:07:51.919Z,1.00
2019-05-30T05:10:22.545Z,2.70
2019-05-30T05:12:52.334Z,2.53
2019-05-30T05:15:22.753Z,1.60
2019-05-30T05:17:52.370Z,3.37
2019-05-30T05:20:23.488Z,1.10
2019-05-30T05:22:53.151Z,1.17
2019-05-30T05:25:23.523Z,0.60
2019-05-30T05:27:53.180Z,0.90
2019-05-30T05:30:22.680Z,0.80
2019-05-30T05:32:52.126Z,0.60
2019-05-30T05:35:23.015Z,0.90
2019-05-30T05:37:52.608Z,0.83
2019-05-30T05:40:22.421Z,0.83
2019-05-30T05:42:52.140Z,0.90
2019-05-30T05:45:22.829Z,0.90
2019-05-30T05:47:52.646Z,0.90
2019-05-30T05:50:22.567Z,1.10
2019-05-30T05:52:52.051Z,0.83
2019-05-30T05:55:21.486Z,0.80
2019-05-30T05:57:50.944Z,0.80
2019-05-30T06:00:21.261Z,0.63
2019-05-30T06:02:50.895Z,0.60
2019-05-30T06:05:20.283Z,0.27
2019-05-30T06:07:49.705Z,0.60
2019-05-30T06:10:21.745Z,0.70
2019-05-30T06:12:51.464Z,0.80
2019-05-30T06:15:20.891Z,0.97
2019-05-30T06:17:50.350Z,0.80
2019-05-30T06:20:21.441Z,0.80
2019-05-30T06:22:50.931Z,0.70
2019-05-30T06:25:22.281Z,0.60
2019-05-30T06:27:51.474Z,0.63
2019-05-30T06:30:22.255Z,0.80
2019-05-30T06:32:52.012Z,0.73
2019-05-30T06:35:21.862Z,0.80
2019-05-30T06:37:52.428Z,0.73
2019-05-30T06:40:21.852Z,0.57
2019-05-30T06:42:51.298Z,0.60
2019-05-30T06:45:21.814Z,0.60
2019-05-30T06:47:51.769Z,0.70
2019-05-30T06:50:22.463Z,0.40
2019-05-30T06:52:52.170Z,0.63
2019-05-30T06:55:21.642Z,0.50
2019-05-30T06:57:51.415Z,0.47
2019-05-30T07:00:21.696Z,0.60
2019-05-30T07:02:51.236Z,0.57
2019-05-30T07:05:21.604Z,0.30
2019-05-30T07:07:52.014Z,0.50
2019-05-30T07:10:22.723Z,0.60
2019-05-30T07:12:52.449Z,0.60
2019-05-30T07:15:23.069Z,0.50
2019-05-30T07:17:52.917Z,0.30
2019-05-30T07:20:23.514Z,0.20
2019-05-30T07:22:52.950Z,0.20
2019-05-30T07:25:23.805Z,0.50
2019-05-30T07:27:53.452Z,0.20
2019-05-30T07:30:23.777Z,0.30
2019-05-30T07:32:53.553Z,0.23
2019-05-30T07:35:23.929Z,0.50
2019-05-30T07:37:53.728Z,0.40
2019-05-30T07:40:24.511Z,0.43
2019-05-30T07:42:54.108Z,0.30
2019-05-30T07:45:24.766Z,0.20
2019-05-30T07:47:54.256Z,0.20
2019-05-30T07:50:23.974Z,0.30
2019-05-30T07:52:53.465Z,0.30
2019-05-30T07:55:22.881Z,0.30
2019-05-30T07:57:52.340Z,0.23
2019-05-30T08:00:22.082Z,0.10
2019-05-30T08:02:51.514Z,0.30
2019-05-30T08:05:24.724Z,1.20
2019-05-30T08:07:52.967Z,0.20
2019-05-30T08:10:22.738Z,0.30
2019-05-30T08:12:52.158Z,0.20
2019-05-30T08:15:21.568Z,0.10
2019-05-30T08:17:51.005Z,0.27
2019-05-30T08:20:20.520Z,0.33
2019-05-30T08:22:49.933Z,0.10
2019-05-30T08:25:19.511Z,1.23
2019-05-30T08:27:48.883Z,0.20
2019-05-30T08:30:18.596Z,0.30
2019-05-30T08:32:48.018Z,0.20
2019-05-30T08:35:17.600Z,0.40
2019-05-30T08:37:47.030Z,0.20
2019-05-30T08:40:17.575Z,0.20
2019-05-30T08:42:47.006Z,0.20
2019-05-30T08:45:17.971Z,0.30
2019-05-30T08:47:47.406Z,0.40
2019-05-30T08:50:16.966Z,0.40
2019-05-30T08:52:46.375Z,0.37
2019-05-30T08:55:15.910Z,0.37
2019-05-30T08:57:45.449Z,0.23
2019-05-30T09:00:15.937Z,0.20
2019-05-30T09:02:45.394Z,0.20
2019-05-30T09:05:14.806Z,0.40
2019-05-30T09:07:44.627Z,0.40
2019-05-30T09:10:15.004Z,0.30
2019-05-30T09:12:48.790Z,0.50
2019-05-30T09:15:16.669Z,0.50
2019-05-30T09:17:46.766Z,0.40
2019-05-30T09:20:17.509Z,0.57
2019-05-30T09:22:47.451Z,0.50
2019-05-30T09:25:17.928Z,0.67
2019-05-30T09:27:48.370Z,0.67
2019-05-30T09:30:19.235Z,0.67
2019-05-30T09:32:48.943Z,0.47
2019-05-30T09:35:19.375Z,0.50
2019-05-30T09:37:49.474Z,0.87
2019-05-30T09:40:19.350Z,0.90
2019-05-30T09:42:50.212Z,0.60
2019-05-30T09:45:22.145Z,1.40
2019-05-30T09:47:51.561Z,1.17
2019-05-30T09:50:21.503Z,1.27
2019-05-30T09:52:51.371Z,1.40
2019-05-30T09:55:21.359Z,1.27
2019-05-30T09:57:51.666Z,1.10
2019-05-30T10:00:23.135Z,1.33
2019-05-30T10:02:52.726Z,0.80
2019-05-30T10:05:24.614Z,1.30
2019-05-30T10:07:53.371Z,1.33
2019-05-30T10:10:22.833Z,1.10
2019-05-30T10:12:52.701Z,1.40
2019-05-30T10:15:23.843Z,1.30
2019-05-30T10:17:54.611Z,1.10
2019-05-30T10:20:24.395Z,1.10
2019-05-30T10:22:57.280Z,1.40
2019-05-30T10:25:26.866Z,1.00
2019-05-30T10:27:57.651Z,1.10
2019-05-30T10:30:27.815Z,0.83
2019-05-30T10:32:57.158Z,1.00
2019-05-30T10:35:29.594Z,0.90
2019-05-30T10:37:57.725Z,0.77
2019-05-30T10:40:27.381Z,0.83
2019-05-30T10:42:56.922Z,0.70
2019-05-30T10:45:27.020Z,0.60
2019-05-30T10:47:57.527Z,0.60
2019-05-30T10:50:27.353Z,0.60
2019-05-30T10:52:56.700Z,0.53
2019-05-30T10:55:26.348Z,0.63
2019-05-30T10:57:58.087Z,0.50
2019-05-30T11:00:53.100Z,1.20
2019-05-30T11:03:25.118Z,0.50
2019-05-30T11:06:20.549Z,0.40
2019-05-30T11:08:52.849Z,0.40
2019-05-30T11:11:22.245Z,0.70
2019-05-30T11:13:51.655Z,0.40
2019-05-30T11:16:21.043Z,0.40
2019-05-30T11:18:51.390Z,0.50
2019-05-30T11:21:21.528Z,0.57
2019-05-30T11:23:51.426Z,0.50
2019-05-30T11:26:21.861Z,0.60
2019-05-30T11:28:51.229Z,0.50
2019-05-30T11:31:20.619Z,2.63
2019-05-30T11:33:50.777Z,0.50
2019-05-30T11:36:20.305Z,0.53
2019-05-30T11:38:51.979Z,0.60
2019-05-30T11:41:20.764Z,0.50
2019-05-30T11:43:51.182Z,0.60
2019-05-30T11:46:21.092Z,0.40
2019-05-30T11:48:51.634Z,0.50
2019-05-30T11:51:21.423Z,0.50
2019-05-30T11:53:51.814Z,0.57
2019-05-30T11:56:21.442Z,0.47
2019-05-30T11:58:51.970Z,0.53
2019-05-30T12:01:21.628Z,0.60
2019-05-30T12:03:52.436Z,0.40
2019-05-30T12:06:22.093Z,0.47
2019-05-30T12:08:52.718Z,0.40
2019-05-30T12:11:22.326Z,0.40
2019-05-30T12:13:51.838Z,0.40
2019-05-30T12:16:22.740Z,0.40
2019-05-30T12:18:53.856Z,0.50
2019-05-30T12:21:23.408Z,0.40
2019-05-30T12:23:54.291Z,0.43
2019-05-30T12:26:23.888Z,0.50
2019-05-30T12:28:54.100Z,0.87
2019-05-30T12:31:23.709Z,0.60
2019-05-30T12:33:54.099Z,0.60
2019-05-30T12:36:26.935Z,0.50
2019-05-30T12:38:56.407Z,0.73
2019-05-30T12:41:25.859Z,0.37
2019-05-30T12:43:55.233Z,0.80
2019-05-30T12:46:24.714Z,0.60
2019-05-30T12:48:55.146Z,0.50
2019-05-30T12:51:24.899Z,0.40
2019-05-30T12:53:54.379Z,0.40
2019-05-30T12:56:23.771Z,0.47
2019-05-30T12:58:54.479Z,0.60
2019-05-30T13:01:27.298Z,0.37
2019-05-30T13:03:55.208Z,0.57
2019-05-30T13:06:24.589Z,0.20
2019-05-30T13:08:55.006Z,0.30
2019-05-30T13:11:24.587Z,0.50
2019-05-30T13:13:55.046Z,0.40
2019-05-30T13:16:24.904Z,0.40
2019-05-30T13:18:54.342Z,0.50
2019-05-30T13:21:23.809Z,0.37
2019-05-30T13:23:53.179Z,0.30
2019-05-30T13:26:22.622Z,0.33
2019-05-30T13:28:52.053Z,0.30
2019-05-30T13:31:21.425Z,0.20
2019-05-30T13:33:50.837Z,0.30
2019-05-30T13:36:20.274Z,0.50
2019-05-30T13:38:49.728Z,0.20
2019-05-30T13:41:19.210Z,0.30
2019-05-30T13:43:48.698Z,0.30
2019-05-30T13:46:18.117Z,0.30
2019-05-30T13:48:47.568Z,0.40
2019-05-30T13:51:16.965Z,0.37
2019-05-30T13:53:46.444Z,0.10
2019-05-30T13:56:15.894Z,0.20
2019-05-30T13:58:45.428Z,0.40
2019-05-30T14:01:14.838Z,0.20
2019-05-30T14:03:44.241Z,0.20
2019-05-30T14:06:13.627Z,0.20
2019-05-30T14:08:43.091Z,0.10
2019-05-30T14:11:12.565Z,0.10
2019-05-30T14:13:42.852Z,0.10
2019-05-30T14:16:12.283Z,0.30
2019-05-30T14:18:41.732Z,0.20
2019-05-30T14:21:11.588Z,0.30
2019-05-30T14:23:41.205Z,0.43
2019-05-30T14:26:11.582Z,0.20
2019-05-30T14:28:41.455Z,0.20
2019-05-30T14:31:11.996Z,0.10
2019-05-30T14:33:41.947Z,0.20
2019-05-30T14:36:13.351Z,0.30
2019-05-30T14:38:57.266Z,0.30
2019-05-30T14:41:14.639Z,0.27
2019-05-30T14:43:44.129Z,0.20
2019-05-30T14:46:13.573Z,0.30
2019-05-30T14:48:43.014Z,0.23
2019-05-30T14:51:12.971Z,0.40
2019-05-30T14:53:42.651Z,0.30
2019-05-30T14:56:13.519Z,0.30
2019-05-30T14:58:43.072Z,0.50
2019-05-30T15:01:13.362Z,0.40
2019-05-30T15:03:42.972Z,0.10
2019-05-30T15:06:15.676Z,0.30
2019-05-30T15:08:43.840Z,0.20
2019-05-30T15:11:13.835Z,0.17
2019-05-30T15:13:43.544Z,0.30
2019-05-30T15:16:13.124Z,0.30
2019-05-30T15:18:42.800Z,0.20
2019-05-30T15:21:12.508Z,0.37
2019-05-30T15:23:42.259Z,0.30
2019-05-30T15:26:12.126Z,0.37
2019-05-30T15:28:41.871Z,0.33
2019-05-30T15:31:12.315Z,0.40
2019-05-30T15:33:41.887Z,0.30
2019-05-30T15:36:11.280Z,0.20
2019-05-30T15:38:40.717Z,0.40
2019-05-30T15:41:11.401Z,0.10
2019-05-30T15:43:41.015Z,0.30
2019-05-30T15:46:10.421Z,0.40
2019-05-30T15:48:39.808Z,0.33
2019-05-30T15:51:10.372Z,0.30
2019-05-30T15:53:39.950Z,0.60
2019-05-30T15:56:09.374Z,1.50
2019-05-30T15:58:38.766Z,1.23
2019-05-30T16:01:08.381Z,1.37
2019-05-30T16:03:37.767Z,0.87
2019-05-30T16:06:07.239Z,1.10
2019-05-30T16:08:36.717Z,1.03
2019-05-30T16:11:06.047Z,1.03
2019-05-30T16:13:35.420Z,0.63
2019-05-30T16:16:04.956Z,0.30
2019-05-30T16:18:34.356Z,0.30
2019-05-30T16:21:03.693Z,0.37
2019-05-30T16:23:33.170Z,0.60
2019-05-30T16:26:02.564Z,0.40
2019-05-30T16:28:31.977Z,1.00
2019-05-30T16:31:01.332Z,0.80
2019-05-30T16:33:30.792Z,0.80
2019-05-30T16:36:00.279Z,1.03
2019-05-30T16:38:29.615Z,0.47
2019-05-30T16:40:59.057Z,0.80
2019-05-30T16:43:28.429Z,1.10
2019-05-30T16:45:57.788Z,0.53
2019-05-30T16:48:27.282Z,0.80
2019-05-30T16:50:56.718Z,0.70
2019-05-30T16:53:27.322Z,1.20
2019-05-30T16:55:57.191Z,0.47
2019-05-30T16:58:26.675Z,0.53
2019-05-30T17:00:56.133Z,0.93
2019-05-30T17:03:28.345Z,0.93
2019-05-30T17:05:57.803Z,3.77
2019-05-30T17:08:27.209Z,3.77
2019-05-30T17:10:56.602Z,3.17
2019-05-30T17:13:26.003Z,2.10
2019-05-30T17:15:55.451Z,1.93
2019-05-30T17:18:24.855Z,1.20
2019-05-30T17:20:54.287Z,1.60
2019-05-30T17:23:24.818Z,1.20
2019-05-30T17:25:54.622Z,1.80
2019-05-30T17:28:24.504Z,1.70
2019-05-30T17:30:53.844Z,2.90
2019-05-30T17:33:24.922Z,5.40
2019-05-30T17:35:54.513Z,4.37
2019-05-30T17:38:24.590Z,6.07
2019-05-30T17:40:54.305Z,3.50
2019-05-30T17:43:24.935Z,4.03
2019-05-30T17:45:54.435Z,3.63
2019-05-30T17:48:23.840Z,3.30
2019-05-30T17:50:53.296Z,1.60
2019-05-30T17:53:23.874Z,0.90
2019-05-30T17:55:53.501Z,1.00
2019-05-30T17:58:23.912Z,0.77
2019-05-30T18:00:56.884Z,0.77
2019-05-30T18:03:24.731Z,0.93
2019-05-30T18:05:54.074Z,0.90
2019-05-30T18:08:24.585Z,0.50
2019-05-30T18:10:54.517Z,0.60
2019-05-30T18:13:24.969Z,0.70
2019-05-30T18:15:54.670Z,0.80
2019-05-30T18:18:25.215Z,0.60
2019-05-30T18:20:54.719Z,0.77
2019-05-30T18:23:25.436Z,0.70
2019-05-30T18:25:55.207Z,0.80
2019-05-30T18:28:25.699Z,1.00
2019-05-30T18:30:55.296Z,0.90
2019-05-30T18:33:26.034Z,0.70
2019-05-30T18:35:55.863Z,0.90
2019-05-30T18:38:26.378Z,0.90
2019-05-30T18:41:10.314Z,1.00
2019-05-30T18:43:27.087Z,1.13
2019-05-30T18:45:56.512Z,0.93
2019-05-30T18:48:27.142Z,0.90
2019-05-30T18:50:56.862Z,0.80
2019-05-30T18:53:26.300Z,0.90
2019-05-30T18:55:55.702Z,0.90
2019-05-30T18:58:25.222Z,0.90
2019-05-30T19:00:54.627Z,1.10
2019-05-30T19:03:24.525Z,0.90
2019-05-30T19:05:54.154Z,0.90
2019-05-30T19:08:23.494Z,1.17
2019-05-30T19:10:52.914Z,0.77
2019-05-30T19:13:22.271Z,0.77
2019-05-30T19:15:51.760Z,0.93
2019-05-30T19:18:21.139Z,0.90
2019-05-30T19:20:50.648Z,1.00
2019-05-30T19:23:20.105Z,0.80
2019-05-30T19:25:49.568Z,1.00
2019-05-30T19:28:19.016Z,1.03
2019-05-30T19:30:48.494Z,0.87
2019-05-30T19:33:20.640Z,0.80
2019-05-30T19:35:49.783Z,1.00
2019-05-30T19:38:19.391Z,1.50
2019-05-30T19:40:48.986Z,1.00
2019-05-30T19:43:18.447Z,1.03
2019-05-30T19:45:47.912Z,0.97
2019-05-30T19:48:17.329Z,0.60
2019-05-30T19:50:46.800Z,0.87
2019-05-30T19:53:16.274Z,1.00
2019-05-30T19:55:45.711Z,0.83
2019-05-30T19:58:15.131Z,0.90
2019-05-30T20:00:58.133Z,0.83
2019-05-30T20:03:15.704Z,0.97
2019-05-30T20:05:45.043Z,0.70
2019-05-30T20:08:14.532Z,0.60
2019-05-30T20:10:44.111Z,0.80
2019-05-30T20:13:13.552Z,0.77
2019-05-30T20:15:42.995Z,0.80
2019-05-30T20:18:12.484Z,0.70
2019-05-30T20:20:54.043Z,0.93
2019-05-30T20:23:13.036Z,0.90
2019-05-30T20:25:45.876Z,0.80
2019-05-30T20:28:13.678Z,0.80
2019-05-30T20:30:43.330Z,0.80
2019-05-30T20:33:12.960Z,0.70
2019-05-30T20:35:43.447Z,1.00
2019-05-30T20:38:12.983Z,0.80
2019-05-30T20:40:43.031Z,1.10
2019-05-30T20:43:12.496Z,0.90
2019-05-30T20:45:47.185Z,1.00
2019-05-30T20:48:13.276Z,0.90
2019-05-30T20:50:43.267Z,0.80
2019-05-30T20:53:12.842Z,0.60
2019-05-30T20:55:42.535Z,0.90
2019-05-30T20:58:12.309Z,1.30
2019-05-30T21:00:42.201Z,1.50
2019-05-30T21:03:11.881Z,1.53
2019-05-30T21:05:42.151Z,0.90
2019-05-30T21:08:13.125Z,0.83
2019-05-30T21:10:44.952Z,0.60
2019-05-30T21:13:14.564Z,0.90
2019-05-30T21:15:47.003Z,0.73
2019-05-30T21:18:18.142Z,0.60
2019-05-30T21:20:48.799Z,0.77
2019-05-30T21:23:18.267Z,1.00
2019-05-30T21:25:47.741Z,0.83
2019-05-30T21:28:17.188Z,0.83
2019-05-30T21:30:47.504Z,0.70
2019-05-30T21:33:17.624Z,0.70
2019-05-30T21:35:48.076Z,0.70
2019-05-30T21:38:17.755Z,0.80
2019-05-30T21:40:48.563Z,0.90
2019-05-30T21:43:18.548Z,0.70
2019-05-30T21:45:48.994Z,0.73
2019-05-30T21:48:19.051Z,0.70
2019-05-30T21:50:49.180Z,0.57
2019-05-30T21:53:19.665Z,0.60
2019-05-30T21:55:50.104Z,0.60
2019-05-30T21:58:20.479Z,0.80
2019-05-30T22:01:31.833Z,0.87
2019-05-30T22:04:01.636Z,0.90
2019-05-30T22:06:31.318Z,0.70
2019-05-30T22:09:03.281Z,0.90
2019-05-30T22:11:31.829Z,0.70
2019-05-30T22:14:01.197Z,0.60
2019-05-30T22:16:30.701Z,0.80
2019-05-30T22:19:00.156Z,0.67
2019-05-30T22:21:30.622Z,0.60
2019-05-30T22:24:00.147Z,0.60
2019-05-30T22:26:29.624Z,0.80
2019-05-30T22:28:58.998Z,0.53
2019-05-30T22:31:28.400Z,0.70
2019-05-30T22:33:57.895Z,0.70
2019-05-30T22:36:27.275Z,0.63
2019-05-30T22:38:56.706Z,1.00
2019-05-30T22:41:26.122Z,0.70
2019-05-30T22:43:55.612Z,0.70
2019-05-30T22:46:24.966Z,0.80
2019-05-30T22:48:54.405Z,0.70
2019-05-30T22:51:27.286Z,0.70
2019-05-30T22:53:54.985Z,0.60
2019-05-30T22:56:24.398Z,0.80
2019-05-30T22:58:53.925Z,0.67
2019-05-30T23:01:23.423Z,0.80
2019-05-30T23:03:53.999Z,0.70
2019-05-30T23:06:23.672Z,0.60
2019-05-30T23:08:53.153Z,0.60
2019-05-30T23:11:22.578Z,0.60
2019-05-30T23:13:52.065Z,0.60
2019-05-30T23:16:21.503Z,0.60
2019-05-30T23:18:50.940Z,0.77
2019-05-30T23:21:20.371Z,0.87
2019-05-30T23:23:51.733Z,0.60
2019-05-30T23:26:20.871Z,1.00
2019-05-30T23:28:50.200Z,0.90
2019-05-30T23:31:19.592Z,0.70
2019-05-30T23:33:50.215Z,0.70
2019-05-30T23:36:19.873Z,0.60
2019-05-30T23:38:50.623Z,0.50
2019-05-30T23:41:20.374Z,0.70
2019-05-30T23:43:59.603Z,0.60
2019-05-30T23:46:20.909Z,0.70
2019-05-30T23:48:51.468Z,0.50
2019-05-30T23:51:21.283Z,0.60
2019-05-30T23:53:52.020Z,0.90
2019-05-30T23:56:21.682Z,0.60
2019-05-30T23:58:52.423Z,0.60
